sensor_id;sensor_type;location;lat;lon;timestamp;pressure;altitude;pressure_sealevel;temperature;humidity
18652;BME280;9455;54.302;10.124;2022-10-22T00:00:13;100869.41;;;13.21;100.00
18652;BME280;9455;54.302;10.124;2022-10-22T00:02:42;100863.91;;;13.23;100.00
18652;BME280;9455;54.302;10.124;2022-10-22T00:05:09;100872.63;;;13.25;100.00
18652;BME280;9455;54.302;10.124;2022-10-22T00:07:36;100873.47;;;13.25;100.00
18652;BME280;9455;54.302;10.124;2022-10-22T00:10:04;100869.53;;;13.20;100.00
18652;BME280;9455;54.302;10.124;2022-10-22T00:12:31;100876.88;;;13.18;100.00
18652;BME280;9455;54.302;10.124;2022-10-22T00:14:57;100878.59;;;13.19;100.00
18652;BME280;9455;54.302;10.124;2022-10-22T00:17:24;100881.09;;;13.20;100.00
18652;BME280;9455;54.302;10.124;2022-10-22T00:19:52;100887.28;;;13.21;100.00
18652;BME280;9455;54.302;10.124;2022-10-22T00:22:18;100882.50;;;13.24;100.00
18652;BME280;9455;54.302;10.124;2022-10-22T00:24:45;100884.03;;;13.27;100.00
18652;BME280;9455;54.302;10.124;2022-10-22T00:27:12;100874.84;;;13.29;100.00
18652;BME280;9455;54.302;10.124;2022-10-22T00:29:39;100876.00;;;13.27;100.00
18652;BME280;9455;54.302;10.124;2022-10-22T00:32:06;100881.66;;;13.24;100.00
18652;BME280;9455;54.302;10.124;2022-10-22T00:34:33;100877.28;;;13.23;100.00
18652;BME280;9455;54.302;10.124;2022-10-22T00:37:01;100876.00;;;13.27;100.00
18652;BME280;9455;54.302;10.124;2022-10-22T00:39:28;100877.38;;;13.31;100.00
18652;BME280;9455;54.302;10.124;2022-10-22T00:41:56;100879.34;;;13.29;100.00
18652;BME280;9455;54.302;10.124;2022-10-22T00:44:59;100884.41;;;13.32;100.00
18652;BME280;9455;54.302;10.124;2022-10-22T00:47:27;100892.75;;;13.29;100.00
18652;BME280;9455;54.302;10.124;2022-10-22T00:49:56;100895.84;;;13.34;100.00
18652;BME280;9455;54.302;10.124;2022-10-22T00:52:25;100884.53;;;13.40;100.00
18652;BME280;9455;54.302;10.124;2022-10-22T00:54:52;100895.25;;;13.40;100.00
18652;BME280;9455;54.302;10.124;2022-10-22T00:57:19;100891.59;;;13.41;100.00
18652;BME280;9455;54.302;10.124;2022-10-22T00:59:47;100891.72;;;13.39;100.00
18652;BME280;9455;54.302;10.124;2022-10-22T01:02:14;100893.41;;;13.40;100.00
18652;BME280;9455;54.302;10.124;2022-10-22T01:04:40;100891.16;;;13.36;100.00
18652;BME280;9455;54.302;10.124;2022-10-22T01:07:11;100892.16;;;13.35;100.00
18652;BME280;9455;54.302;10.124;2022-10-22T01:09:45;100894.56;;;13.38;100.00
18652;BME280;9455;54.302;10.124;2022-10-22T01:12:20;100898.63;;;13.42;100.00
18652;BME280;9455;54.302;10.124;2022-10-22T01:15:00;100897.63;;;13.43;100.00
18652;BME280;9455;54.302;10.124;2022-10-22T01:17:32;100898.19;;;13.46;100.00
18652;BME280;9455;54.302;10.124;2022-10-22T01:20:11;100893.13;;;13.43;100.00
18652;BME280;9455;54.302;10.124;2022-10-22T01:22:54;100893.13;;;13.43;100.00
18652;BME280;9455;54.302;10.124;2022-10-22T01:25:30;100878.34;;;13.39;100.00
18652;BME280;9455;54.302;10.124;2022-10-22T01:28:06;100881.88;;;13.40;100.00
18652;BME280;9455;54.302;10.124;2022-10-22T01:30:38;100878.19;;;13.41;100.00
18652;BME280;9455;54.302;10.124;2022-10-22T01:33:08;100879.03;;;13.41;100.00
18652;BME280;9455;54.302;10.124;2022-10-22T01:35:38;100881.88;;;13.40;100.00
18652;BME280;9455;54.302;10.124;2022-10-22T01:38:08;100868.78;;;13.37;100.00
18652;BME280;9455;54.302;10.124;2022-10-22T01:40:36;100879.91;;;13.32;100.00
18652;BME280;9455;54.302;10.124;2022-10-22T01:43:05;100880.66;;;13.25;100.00
18652;BME280;9455;54.302;10.124;2022-10-22T01:45:35;100879.53;;;13.27;100.00
18652;BME280;9455;54.302;10.124;2022-10-22T01:48:12;100880.78;;;13.23;100.00
18652;BME280;9455;54.302;10.124;2022-10-22T01:50:55;100881.53;;;13.16;100.00
18652;BME280;9455;54.302;10.124;2022-10-22T01:53:31;100890.97;;;13.20;100.00
18652;BME280;9455;54.302;10.124;2022-10-22T01:56:12;100892.78;;;13.19;100.00
18652;BME280;9455;54.302;10.124;2022-10-22T01:58:46;100890.81;;;13.21;100.00
18652;BME280;9455;54.302;10.124;2022-10-22T02:01:23;100889.28;;;13.19;100.00
18652;BME280;9455;54.302;10.124;2022-10-22T02:03:55;100886.91;;;13.16;100.00
18652;BME280;9455;54.302;10.124;2022-10-22T02:06:27;100889.28;;;13.19;100.00
18652;BME280;9455;54.302;10.124;2022-10-22T02:08:55;100896.31;;;13.20;100.00
18652;BME280;9455;54.302;10.124;2022-10-22T02:11:23;100892.06;;;13.27;100.00
18652;BME280;9455;54.302;10.124;2022-10-22T02:13:52;100902.50;;;13.30;100.00
18652;BME280;9455;54.302;10.124;2022-10-22T02:16:24;100902.50;;;13.30;100.00
18652;BME280;9455;54.302;10.124;2022-10-22T02:18:55;100895.44;;;13.29;100.00
18652;BME280;9455;54.302;10.124;2022-10-22T02:21:24;100904.16;;;13.31;100.00
18652;BME280;9455;54.302;10.124;2022-10-22T02:23:51;100897.00;;;13.31;100.00
18652;BME280;9455;54.302;10.124;2022-10-22T02:26:21;100888.09;;;13.31;100.00
18652;BME280;9455;54.302;10.124;2022-10-22T02:28:56;100895.44;;;13.29;100.00
18652;BME280;9455;54.302;10.124;2022-10-22T02:31:27;100898.66;;;13.32;100.00
18652;BME280;9455;54.302;10.124;2022-10-22T02:33:57;100888.09;;;13.31;100.00
18652;BME280;9455;54.302;10.124;2022-10-22T02:36:26;100894.31;;;13.31;100.00
18652;BME280;9455;54.302;10.124;2022-10-22T02:38:54;100893.47;;;13.31;100.00
18652;BME280;9455;54.302;10.124;2022-10-22T02:41:21;100893.47;;;13.31;100.00
18652;BME280;9455;54.302;10.124;2022-10-22T02:43:50;100890.94;;;13.29;100.00
18652;BME280;9455;54.302;10.124;2022-10-22T02:46:18;100896.28;;;13.29;100.00
18652;BME280;9455;54.302;10.124;2022-10-22T02:48:45;100891.50;;;13.33;100.00
18652;BME280;9455;54.302;10.124;2022-10-22T02:51:13;100896.22;;;13.39;100.00
18652;BME280;9455;54.302;10.124;2022-10-22T02:53:39;100889.19;;;13.38;100.00
18652;BME280;9455;54.302;10.124;2022-10-22T02:56:07;100895.66;;;13.45;100.00
18652;BME280;9455;54.302;10.124;2022-10-22T02:58:33;100891.16;;;13.45;100.00
18652;BME280;9455;54.302;10.124;2022-10-22T03:01:00;100892.25;;;13.43;100.00
18652;BME280;9455;54.302;10.124;2022-10-22T03:03:26;100896.66;;;13.44;100.00
18652;BME280;9455;54.302;10.124;2022-10-22T03:05:53;100898.41;;;13.53;100.00
18652;BME280;9455;54.302;10.124;2022-10-22T03:08:21;100900.50;;;13.59;100.00
18652;BME280;9455;54.302;10.124;2022-10-22T03:10:47;100904.88;;;13.60;100.00
18652;BME280;9455;54.302;10.124;2022-10-22T03:13:14;100905.00;;;13.58;100.00
18652;BME280;9455;54.302;10.124;2022-10-22T03:15:40;100892.09;;;13.54;100.00
18652;BME280;9455;54.302;10.124;2022-10-22T03:18:06;100896.75;;;13.52;100.00
18652;BME280;9455;54.302;10.124;2022-10-22T03:20:33;100895.06;;;13.51;100.00
18652;BME280;9455;54.302;10.124;2022-10-22T03:23:00;100884.63;;;13.48;100.00
18652;BME280;9455;54.302;10.124;2022-10-22T03:25:29;100890.28;;;13.45;100.00
18652;BME280;9455;54.302;10.124;2022-10-22T03:28:00;100898.09;;;13.38;100.00
18652;BME280;9455;54.302;10.124;2022-10-22T03:30:28;100897.13;;;13.30;100.00
18652;BME280;9455;54.302;10.124;2022-10-22T03:32:54;100900.78;;;13.29;100.00
18652;BME280;9455;54.302;10.124;2022-10-22T03:35:21;100903.78;;;13.26;100.00
18652;BME280;9455;54.302;10.124;2022-10-22T03:37:48;100901.38;;;13.23;100.00
18652;BME280;9455;54.302;10.124;2022-10-22T03:40:15;100897.78;;;13.05;100.00
18652;BME280;9455;54.302;10.124;2022-10-22T03:42:43;100891.59;;;12.95;100.00
18652;BME280;9455;54.302;10.124;2022-10-22T03:45:10;100898.91;;;12.93;100.00
18652;BME280;9455;54.302;10.124;2022-10-22T03:47:36;100902.28;;;12.95;100.00
18652;BME280;9455;54.302;10.124;2022-10-22T03:50:04;100906.81;;;12.85;100.00
18652;BME280;9455;54.302;10.124;2022-10-22T03:52:35;100915.81;;;12.84;100.00
18652;BME280;9455;54.302;10.124;2022-10-22T03:55:02;100918.53;;;12.74;100.00
18652;BME280;9455;54.302;10.124;2022-10-22T03:57:28;100920.66;;;12.71;100.00
18652;BME280;9455;54.302;10.124;2022-10-22T03:59:56;100915.88;;;12.65;100.00
18652;BME280;9455;54.302;10.124;2022-10-22T04:02:23;100925.16;;;12.61;100.00
18652;BME280;9455;54.302;10.124;2022-10-22T04:04:49;100921.50;;;12.62;100.00
18652;BME280;9455;54.302;10.124;2022-10-22T04:07:16;100923.47;;;12.60;100.00
18652;BME280;9455;54.302;10.124;2022-10-22T04:09:42;100920.38;;;12.55;100.00
18652;BME280;9455;54.302;10.124;2022-10-22T04:12:08;100919.84;;;12.51;100.00
18652;BME280;9455;54.302;10.124;2022-10-22T04:14:35;100925.19;;;12.51;100.00
18652;BME280;9455;54.302;10.124;2022-10-22T04:17:03;100931.22;;;12.53;100.00
18652;BME280;9455;54.302;10.124;2022-10-22T04:19:29;100935.56;;;12.54;100.00
18652;BME280;9455;54.302;10.124;2022-10-22T04:21:56;100936.84;;;12.60;100.00
18652;BME280;9455;54.302;10.124;2022-10-22T04:24:23;100937.28;;;12.65;100.00
18652;BME280;9455;54.302;10.124;2022-10-22T04:26:52;100941.47;;;12.86;100.00
18652;BME280;9455;54.302;10.124;2022-10-22T04:29:18;100943.13;;;12.97;100.00
18652;BME280;9455;54.302;10.124;2022-10-22T04:31:45;100934.00;;;12.99;100.00
18652;BME280;9455;54.302;10.124;2022-10-22T04:34:13;100938.91;;;13.04;100.00
18652;BME280;9455;54.302;10.124;2022-10-22T04:36:39;100944.00;;;13.07;100.00
18652;BME280;9455;54.302;10.124;2022-10-22T04:39:06;100948.06;;;13.11;100.00
18652;BME280;9455;54.302;10.124;2022-10-22T04:41:35;100955.28;;;13.10;100.00
18652;BME280;9455;54.302;10.124;2022-10-22T04:44:03;100966.81;;;13.11;100.00
18652;BME280;9455;54.302;10.124;2022-10-22T04:46:31;100962.44;;;13.10;100.00
18652;BME280;9455;54.302;10.124;2022-10-22T04:48:59;100970.47;;;13.10;100.00
18652;BME280;9455;54.302;10.124;2022-10-22T04:51:29;100967.09;;;13.17;100.00
18652;BME280;9455;54.302;10.124;2022-10-22T04:53:56;100962.03;;;13.14;100.00
18652;BME280;9455;54.302;10.124;2022-10-22T04:56:24;100967.09;;;13.17;100.00
18652;BME280;9455;54.302;10.124;2022-10-22T04:58:53;100969.31;;;13.22;100.00
18652;BME280;9455;54.302;10.124;2022-10-22T05:01:21;100966.94;;;13.19;100.00
18652;BME280;9455;54.302;10.124;2022-10-22T05:03:49;100969.31;;;13.22;100.00
18652;BME280;9455;54.302;10.124;2022-10-22T05:06:16;100970.59;;;13.18;100.00
18652;BME280;9455;54.302;10.124;2022-10-22T05:08:46;100967.91;;;13.18;100.00
18652;BME280;9455;54.302;10.124;2022-10-22T05:11:14;100968.91;;;13.17;100.00
18652;BME280;9455;54.302;10.124;2022-10-22T05:13:41;100972.31;;;13.19;100.00
18652;BME280;9455;54.302;10.124;2022-10-22T05:16:08;100973.41;;;13.16;100.00
18652;BME280;9455;54.302;10.124;2022-10-22T05:18:35;100968.50;;;13.12;100.00
18652;BME280;9455;54.302;10.124;2022-10-22T05:21:02;100973.56;;;13.15;100.00
18652;BME280;9455;54.302;10.124;2022-10-22T05:23:28;100971.63;;;13.07;100.00
18652;BME280;9455;54.302;10.124;2022-10-22T05:25:56;100971.91;;;13.04;100.00
18652;BME280;9455;54.302;10.124;2022-10-22T05:28:23;100974.00;;;13.01;100.00
18652;BME280;9455;54.302;10.124;2022-10-22T05:30:53;100969.38;;;13.03;100.00
18652;BME280;9455;54.302;10.124;2022-10-22T05:33:19;100964.72;;;13.05;100.00
18652;BME280;9455;54.302;10.124;2022-10-22T05:35:46;100959.50;;;13.03;100.00
18652;BME280;9455;54.302;10.124;2022-10-22T05:38:13;100968.91;;;12.98;100.00
18652;BME280;9455;54.302;10.124;2022-10-22T05:40:39;100967.81;;;13.00;100.00
18652;BME280;9455;54.302;10.124;2022-10-22T05:43:07;100966.97;;;13.00;100.00
18652;BME280;9455;54.302;10.124;2022-10-22T05:45:35;100963.72;;;12.96;100.00
18652;BME280;9455;54.302;10.124;2022-10-22T05:48:01;100963.28;;;12.91;100.00
18652;BME280;9455;54.302;10.124;2022-10-22T05:50:28;100963.28;;;12.91;100.00
18652;BME280;9455;54.302;10.124;2022-10-22T05:52:54;100966.53;;;12.95;100.00
18652;BME280;9455;54.302;10.124;2022-10-22T05:55:21;100953.72;;;12.98;100.00
18652;BME280;9455;54.302;10.124;2022-10-22T05:57:48;100955.41;;;12.99;100.00
18652;BME280;9455;54.302;10.124;2022-10-22T06:00:16;100966.81;;;12.92;100.00
18652;BME280;9455;54.302;10.124;2022-10-22T06:02:43;100964.53;;;12.97;100.00
18652;BME280;9455;54.302;10.124;2022-10-22T06:05:09;100969.34;;;12.93;100.00
18652;BME280;9455;54.302;10.124;2022-10-22T06:07:36;100976.00;;;12.99;100.00
18652;BME280;9455;54.302;10.124;2022-10-22T06:10:02;100975.53;;;12.94;100.00
18652;BME280;9455;54.302;10.124;2022-10-22T06:12:29;100979.50;;;12.99;100.00
18652;BME280;9455;54.302;10.124;2022-10-22T06:14:56;100978.69;;;12.99;100.00
18652;BME280;9455;54.302;10.124;2022-10-22T06:17:23;100989.09;;;13.02;100.00
18652;BME280;9455;54.302;10.124;2022-10-22T06:19:50;100990.78;;;13.03;100.00
18652;BME280;9455;54.302;10.124;2022-10-22T06:22:16;100988.81;;;13.05;100.00
18652;BME280;9455;54.302;10.124;2022-10-22T06:24:43;100983.47;;;13.05;100.00
18652;BME280;9455;54.302;10.124;2022-10-22T06:27:09;100994.72;;;13.08;100.00
18652;BME280;9455;54.302;10.124;2022-10-22T06:29:36;100999.22;;;13.08;100.00
18652;BME280;9455;54.302;10.124;2022-10-22T06:32:02;100998.25;;;13.09;100.00
18652;BME280;9455;54.302;10.124;2022-10-22T06:34:30;100999.53;;;13.05;100.00
18652;BME280;9455;54.302;10.124;2022-10-22T06:36:56;100999.09;;;13.00;100.00
18652;BME280;9455;54.302;10.124;2022-10-22T06:39:23;101008.09;;;13.08;100.00
18652;BME280;9455;54.302;10.124;2022-10-22T06:41:49;101007.13;;;13.00;100.00
18652;BME280;9455;54.302;10.124;2022-10-22T06:44:19;101009.38;;;13.04;100.00
18652;BME280;9455;54.302;10.124;2022-10-22T06:46:48;101009.09;;;13.07;100.00
18652;BME280;9455;54.302;10.124;2022-10-22T06:49:16;101007.56;;;13.05;100.00
18652;BME280;9455;54.302;10.124;2022-10-22T06:51:44;101008.81;;;13.01;100.00
18652;BME280;9455;54.302;10.124;2022-10-22T06:54:11;101016.56;;;13.04;100.00
18652;BME280;9455;54.302;10.124;2022-10-22T06:59:09;101025.16;;;13.17;100.00
18652;BME280;9455;54.302;10.124;2022-10-22T07:01:35;101020.06;;;13.14;100.00
18652;BME280;9455;54.302;10.124;2022-10-22T07:04:03;101017.81;;;13.09;100.00
18652;BME280;9455;54.302;10.124;2022-10-22T07:06:30;101027.69;;;13.09;100.00
18652;BME280;9455;54.302;10.124;2022-10-22T07:08:58;101027.97;;;13.15;100.00
18652;BME280;9455;54.302;10.124;2022-10-22T07:11:26;101035.13;;;13.15;100.00
18652;BME280;9455;54.302;10.124;2022-10-22T07:13:54;101033.47;;;13.14;100.00
18652;BME280;9455;54.302;10.124;2022-10-22T07:16:21;101029.94;;;13.13;100.00
18652;BME280;9455;54.302;10.124;2022-10-22T07:18:47;101030.78;;;13.14;100.00
18652;BME280;9455;54.302;10.124;2022-10-22T07:21:17;101038.94;;;13.22;100.00
18652;BME280;9455;54.302;10.124;2022-10-22T07:23:44;101034.69;;;13.29;100.00
18652;BME280;9455;54.302;10.124;2022-10-22T07:26:14;101041.47;;;13.33;100.00
18652;BME280;9455;54.302;10.124;2022-10-22T07:28:41;101041.47;;;13.33;100.00
18652;BME280;9455;54.302;10.124;2022-10-22T07:31:09;101046.09;;;13.40;100.00
18652;BME280;9455;54.302;10.124;2022-10-22T07:33:37;101051.59;;;13.39;100.00
18652;BME280;9455;54.302;10.124;2022-10-22T07:36:06;101052.72;;;13.46;100.00
18652;BME280;9455;54.302;10.124;2022-10-22T07:38:33;101056.38;;;13.45;100.00
18652;BME280;9455;54.302;10.124;2022-10-22T07:41:00;101062.72;;;13.53;100.00
18652;BME280;9455;54.302;10.124;2022-10-22T07:43:28;101069.06;;;13.52;100.00
18652;BME280;9455;54.302;10.124;2022-10-22T07:45:55;101068.78;;;13.55;100.00
18652;BME280;9455;54.302;10.124;2022-10-22T07:48:22;101073.84;;;13.49;100.00
18652;BME280;9455;54.302;10.124;2022-10-22T07:50:49;101075.56;;;13.50;100.00
18652;BME280;9455;54.302;10.124;2022-10-22T07:53:17;101072.56;;;13.53;100.00
18652;BME280;9455;54.302;10.124;2022-10-22T07:55:46;101069.50;;;13.48;100.00
18652;BME280;9455;54.302;10.124;2022-10-22T07:58:14;101075.25;;;13.53;100.00
18652;BME280;9455;54.302;10.124;2022-10-22T08:00:41;101079.50;;;13.55;100.00
18652;BME280;9455;54.302;10.124;2022-10-22T08:03:09;101080.31;;;13.56;100.00
18652;BME280;9455;54.302;10.124;2022-10-22T08:05:36;101076.97;;;13.54;100.00
18652;BME280;9455;54.302;10.124;2022-10-22T08:08:04;101082.72;;;13.59;100.00
18652;BME280;9455;54.302;10.124;2022-10-22T08:10:30;101075.53;;;13.59;100.00
18652;BME280;9455;54.302;10.124;2022-10-22T08:12:57;101081.72;;;13.60;100.00
18652;BME280;9455;54.302;10.124;2022-10-22T08:15:24;101075.81;;;13.56;100.00
18652;BME280;9455;54.302;10.124;2022-10-22T08:17:52;101082.16;;;13.65;100.00
18652;BME280;9455;54.302;10.124;2022-10-22T08:20:19;101083.53;;;13.69;100.00
18652;BME280;9455;54.302;10.124;2022-10-22T08:22:45;101087.22;;;13.68;100.00
18652;BME280;9455;54.302;10.124;2022-10-22T08:25:12;101092.44;;;13.69;100.00
18652;BME280;9455;54.302;10.124;2022-10-22T08:27:39;101077.75;;;13.73;100.00
18652;BME280;9455;54.302;10.124;2022-10-22T08:30:07;101077.47;;;13.76;100.00
18652;BME280;9455;54.302;10.124;2022-10-22T08:32:33;101087.59;;;13.82;100.00
18652;BME280;9455;54.302;10.124;2022-10-22T08:35:01;101087.72;;;13.81;100.00
18652;BME280;9455;54.302;10.124;2022-10-22T08:37:28;101089.28;;;13.83;100.00
18652;BME280;9455;54.302;10.124;2022-10-22T08:39:54;101093.78;;;13.83;100.00
18652;BME280;9455;54.302;10.124;2022-10-22T08:42:58;101095.91;;;13.89;100.00
18652;BME280;9455;54.302;10.124;2022-10-22T08:45:34;101090.94;;;13.94;100.00
18652;BME280;9455;54.302;10.124;2022-10-22T08:48:12;101093.31;;;13.97;100.00
18652;BME280;9455;54.302;10.124;2022-10-22T08:50:45;101098.72;;;13.88;100.00
18652;BME280;9455;54.302;10.124;2022-10-22T08:53:15;101116.34;;;13.90;100.00
18652;BME280;9455;54.302;10.124;2022-10-22T08:55:43;101112.94;;;13.98;100.00
18652;BME280;9455;54.302;10.124;2022-10-22T08:58:17;101102.09;;;13.99;100.00
18652;BME280;9455;54.302;10.124;2022-10-22T09:00:52;101115.59;;;14.07;100.00
18652;BME280;9455;54.302;10.124;2022-10-22T09:03:31;101122.06;;;14.14;100.00
18652;BME280;9455;54.302;10.124;2022-10-22T09:06:08;101127.31;;;13.97;100.00
18652;BME280;9455;54.302;10.124;2022-10-22T09:08:36;101127.31;;;13.97;100.00
18652;BME280;9455;54.302;10.124;2022-10-22T09:11:08;101132.53;;;13.98;100.00
18652;BME280;9455;54.302;10.124;2022-10-22T09:13:41;101139.91;;;13.96;100.00
18652;BME280;9455;54.302;10.124;2022-10-22T09:16:14;101135.22;;;13.98;100.00
18652;BME280;9455;54.302;10.124;2022-10-22T09:18:49;101135.94;;;14.00;100.00
18652;BME280;9455;54.302;10.124;2022-10-22T09:21:26;101125.63;;;13.96;100.00
18652;BME280;9455;54.302;10.124;2022-10-22T09:24:02;101133.25;;;14.00;100.00
18652;BME280;9455;54.302;10.124;2022-10-22T09:26:31;101127.91;;;14.00;100.00
18652;BME280;9455;54.302;10.124;2022-10-22T09:28:59;101134.06;;;14.10;100.00
18652;BME280;9455;54.302;10.124;2022-10-22T09:31:29;101138.34;;;14.03;100.00
18652;BME280;9455;54.302;10.124;2022-10-22T09:33:56;101140.72;;;14.06;100.00
18652;BME280;9455;54.302;10.124;2022-10-22T09:36:27;101146.63;;;14.10;100.00
18652;BME280;9455;54.302;10.124;2022-10-22T09:38:54;101136.59;;;14.12;100.00
18652;BME280;9455;54.302;10.124;2022-10-22T09:41:23;101141.69;;;14.15;100.00
18652;BME280;9455;54.302;10.124;2022-10-22T09:43:50;101142.22;;;14.18;100.00
18652;BME280;9455;54.302;10.124;2022-10-22T09:46:21;101138.53;;;14.19;100.00
18652;BME280;9455;54.302;10.124;2022-10-22T09:48:49;101142.78;;;14.22;100.00
18652;BME280;9455;54.302;10.124;2022-10-22T09:51:20;101145.03;;;14.26;100.00
18652;BME280;9455;54.302;10.124;2022-10-22T09:53:56;101144.34;;;14.24;100.00
18652;BME280;9455;54.302;10.124;2022-10-22T09:56:26;101146.84;;;14.35;100.00
18652;BME280;9455;54.302;10.124;2022-10-22T09:58:55;101148.88;;;14.24;100.00
18652;BME280;9455;54.302;10.124;2022-10-22T10:01:25;101156.47;;;14.28;100.00
18652;BME280;9455;54.302;10.124;2022-10-22T10:03:52;101153.50;;;14.31;100.00
18652;BME280;9455;54.302;10.124;2022-10-22T10:06:20;101148.53;;;14.36;100.00
18652;BME280;9455;54.302;10.124;2022-10-22T10:08:49;101158.28;;;14.37;100.00
18652;BME280;9455;54.302;10.124;2022-10-22T10:11:22;101159.91;;;14.48;100.00
18652;BME280;9455;54.302;10.124;2022-10-22T10:13:59;101158.19;;;14.56;100.00
18652;BME280;9455;54.302;10.124;2022-10-22T10:16:38;101163.41;;;14.58;100.00
18652;BME280;9455;54.302;10.124;2022-10-22T10:19:18;101172.78;;;14.71;100.00
18652;BME280;9455;54.302;10.124;2022-10-22T10:21:53;101164.69;;;14.81;100.00
18652;BME280;9455;54.302;10.124;2022-10-22T10:24:30;101160.06;;;14.73;100.00
18652;BME280;9455;54.302;10.124;2022-10-22T10:27:04;101157.09;;;14.94;100.00
18652;BME280;9455;54.302;10.124;2022-10-22T10:29:40;101155.50;;;14.83;100.00
18652;BME280;9455;54.302;10.124;2022-10-22T10:32:23;101155.88;;;14.88;100.00
18652;BME280;9455;54.302;10.124;2022-10-22T10:35:01;101156.66;;;14.98;100.00
18652;BME280;9455;54.302;10.124;2022-10-22T10:37:35;101149.81;;;14.86;100.00
18652;BME280;9455;54.302;10.124;2022-10-22T10:40:18;101145.13;;;14.88;100.00
18652;BME280;9455;54.302;10.124;2022-10-22T10:42:50;101142.84;;;14.93;100.00
18652;BME280;9455;54.302;10.124;2022-10-22T10:45:23;101145.22;;;14.96;100.00
18652;BME280;9455;54.302;10.124;2022-10-22T10:48:06;101152.88;;;14.91;100.00
18652;BME280;9455;54.302;10.124;2022-10-22T10:50:41;101152.59;;;14.94;100.00
18652;BME280;9455;54.302;10.124;2022-10-22T10:53:16;101146.91;;;14.97;100.00
18652;BME280;9455;54.302;10.124;2022-10-22T10:55:54;101143.22;;;14.98;100.00
18652;BME280;9455;54.302;10.124;2022-10-22T10:58:29;101147.38;;;15.10;100.00
18652;BME280;9455;54.302;10.124;2022-10-22T11:01:02;101147.75;;;15.15;100.00
18652;BME280;9455;54.302;10.124;2022-10-22T11:03:44;101153.16;;;15.33;100.00
18652;BME280;9455;54.302;10.124;2022-10-22T11:06:15;101160.44;;;15.40;100.00
18652;BME280;9455;54.302;10.124;2022-10-22T11:08:45;101152.03;;;15.53;100.00
18652;BME280;9455;54.302;10.124;2022-10-22T11:11:17;101151.78;;;15.64;100.00
18652;BME280;9455;54.302;10.124;2022-10-22T11:13:49;101158.66;;;15.66;100.00
18652;BME280;9455;54.302;10.124;2022-10-22T11:16:20;101157.66;;;15.67;100.00
18652;BME280;9455;54.302;10.124;2022-10-22T11:18:52;101158.91;;;15.55;100.00
18652;BME280;9455;54.302;10.124;2022-10-22T11:21:26;101151.53;;;15.57;100.00
18652;BME280;9455;54.302;10.124;2022-10-22T11:24:00;101145.03;;;15.60;100.00
18652;BME280;9455;54.302;10.124;2022-10-22T11:26:36;101155.78;;;15.60;100.00
18652;BME280;9455;54.302;10.124;2022-10-22T11:29:08;101156.13;;;15.65;100.00
18652;BME280;9455;54.302;10.124;2022-10-22T11:31:37;101155.97;;;15.66;100.00
18652;BME280;9455;54.302;10.124;2022-10-22T11:34:08;101158.81;;;15.82;100.00
18652;BME280;9455;54.302;10.124;2022-10-22T11:36:38;101159.44;;;15.76;100.00
18652;BME280;9455;54.302;10.124;2022-10-22T11:39:05;101159.16;;;15.87;100.00
18652;BME280;9455;54.302;10.124;2022-10-22T11:41:33;101155.41;;;15.80;100.00
18652;BME280;9455;54.302;10.124;2022-10-22T11:44:08;101154.47;;;15.89;100.00
18652;BME280;9455;54.302;10.124;2022-10-22T11:46:43;101160.75;;;15.98;100.00
18652;BME280;9455;54.302;10.124;2022-10-22T11:49:21;101154.25;;;16.08;100.00
18652;BME280;9455;54.302;10.124;2022-10-22T11:51:50;101151.94;;;16.13;100.00
18652;BME280;9455;54.302;10.124;2022-10-22T11:54:37;101155.00;;;16.18;100.00
18652;BME280;9455;54.302;10.124;2022-10-22T11:57:24;101152.81;;;16.22;100.00
18652;BME280;9455;54.302;10.124;2022-10-22T11:59:55;101149.00;;;16.32;100.00
18652;BME280;9455;54.302;10.124;2022-10-22T12:02:36;101145.53;;;16.40;100.00
18652;BME280;9455;54.302;10.124;2022-10-22T12:08:23;101149.63;;;16.52;97.77
18652;BME280;9455;54.302;10.124;2022-10-22T12:10:57;101142.44;;;16.69;96.27
18652;BME280;9455;54.302;10.124;2022-10-22T12:13:29;101137.97;;;16.85;94.14
18652;BME280;9455;54.302;10.124;2022-10-22T12:15:57;101134.44;;;16.85;94.05
18652;BME280;9455;54.302;10.124;2022-10-22T12:18:27;101131.72;;;16.77;93.82
18652;BME280;9455;54.302;10.124;2022-10-22T12:20:57;101132.06;;;16.74;92.11
18652;BME280;9455;54.302;10.124;2022-10-22T12:23:28;101133.03;;;16.65;93.00
18652;BME280;9455;54.302;10.124;2022-10-22T12:25:55;101122.72;;;16.52;94.43
18652;BME280;9455;54.302;10.124;2022-10-22T12:28:22;101126.19;;;16.44;94.64
18652;BME280;9455;54.302;10.124;2022-10-22T12:30:50;101121.47;;;16.38;94.66
18652;BME280;9455;54.302;10.124;2022-10-22T12:33:18;101118.72;;;16.30;95.23
18652;BME280;9455;54.302;10.124;2022-10-22T12:35:46;101119.69;;;16.21;96.57
18652;BME280;9455;54.302;10.124;2022-10-22T12:38:15;101113.94;;;16.16;96.35
18652;BME280;9455;54.302;10.124;2022-10-22T12:40:43;101120.97;;;16.09;98.10
18652;BME280;9455;54.302;10.124;2022-10-22T12:43:11;101114.22;;;16.05;98.05
18652;BME280;9455;54.302;10.124;2022-10-22T12:45:39;101119.72;;;15.96;98.17
18652;BME280;9455;54.302;10.124;2022-10-22T12:48:25;101121.34;;;15.89;100.00
18652;BME280;9455;54.302;10.124;2022-10-22T12:50:54;101131.22;;;15.80;100.00
18652;BME280;9455;54.302;10.124;2022-10-22T12:53:24;101125.78;;;15.72;100.00
18652;BME280;9455;54.302;10.124;2022-10-22T12:55:53;101129.94;;;15.67;100.00
18652;BME280;9455;54.302;10.124;2022-10-22T12:58:24;101126.88;;;15.62;100.00